createdAt,value
2023-02-04T00:00:29.949Z,98276.65
2023-02-04T00:03:18.617Z,98274.41
2023-02-04T00:05:47.549Z,98270.41
2023-02-04T00:08:15.970Z,98269.27
2023-02-04T00:10:44.310Z,98265.30
2023-02-04T00:13:12.692Z,98265.11
2023-02-04T00:15:41.093Z,98258.11
2023-02-04T00:18:09.629Z,98261.29
2023-02-04T00:20:38.058Z,98255.27
2023-02-04T00:23:06.449Z,98254.97
2023-02-04T00:25:34.814Z,98253.46
2023-02-04T00:28:04.407Z,98253.91
2023-02-04T00:30:33.558Z,98254.09
2023-02-04T00:33:02.107Z,98249.94
2023-02-04T00:35:30.460Z,98252.03
2023-02-04T00:37:58.906Z,98250.02
2023-02-04T00:40:27.405Z,98251.87
2023-02-04T00:42:55.886Z,98255.69
2023-02-04T00:45:24.233Z,98252.69
2023-02-04T00:47:52.624Z,98254.16
2023-02-04T00:50:21.105Z,98250.50
2023-02-04T00:52:49.681Z,98253.16
2023-02-04T00:55:18.354Z,98247.13
2023-02-04T00:57:49.668Z,98243.80
2023-02-04T01:00:18.605Z,98244.59
2023-02-04T01:02:47.186Z,98243.80
2023-02-04T01:05:15.689Z,98241.81
2023-02-04T01:07:44.085Z,98238.91
2023-02-04T01:10:12.894Z,98235.73
2023-02-04T01:12:41.274Z,98238.48
2023-02-04T01:15:10.790Z,98235.98
2023-02-04T01:17:39.285Z,98232.54
2023-02-04T01:20:09.345Z,98228.63
2023-02-04T01:22:37.631Z,98223.45
2023-02-04T01:25:06.593Z,98218.19
2023-02-04T01:27:42.467Z,98215.56
2023-02-04T01:30:12.991Z,98212.71
2023-02-04T01:32:42.045Z,98212.06
2023-02-04T01:35:10.482Z,98207.09
2023-02-04T01:37:38.886Z,98202.86
2023-02-04T01:40:08.091Z,98199.45
2023-02-04T01:42:36.664Z,98195.35
2023-02-04T01:45:09.018Z,98190.63
2023-02-04T01:47:38.402Z,98183.61
2023-02-04T01:50:13.102Z,98180.31
2023-02-04T01:52:42.978Z,98177.52
2023-02-04T01:55:18.618Z,98174.53
2023-02-04T01:57:46.937Z,98176.70
2023-02-04T02:00:25.854Z,98173.45
2023-02-04T02:02:54.401Z,98170.63
2023-02-04T02:05:32.037Z,98170.45
2023-02-04T02:08:03.694Z,98169.75
2023-02-04T02:10:33.838Z,98171.38
2023-02-04T02:13:02.499Z,98173.92
2023-02-04T02:15:32.245Z,98175.63
2023-02-04T02:18:00.993Z,98177.82
2023-02-04T02:20:31.211Z,98178.23
2023-02-04T02:23:26.168Z,98178.58
2023-02-04T02:25:54.566Z,98184.83
2023-02-04T02:28:24.615Z,98188.80
2023-02-04T02:30:53.223Z,98193.85
2023-02-04T02:33:21.879Z,98194.17
2023-02-04T02:35:51.372Z,98198.23
2023-02-04T02:38:20.870Z,98203.23
2023-02-04T02:40:51.430Z,98206.36
2023-02-04T02:43:26.058Z,98206.55
2023-02-04T02:45:57.216Z,98208.89
2023-02-04T02:48:26.119Z,98210.78
2023-02-04T02:50:55.067Z,98213.71
2023-02-04T02:53:23.589Z,98218.77
2023-02-04T02:55:52.228Z,98223.10
2023-02-04T02:58:28.691Z,98234.23
2023-02-04T03:00:57.790Z,98237.11
2023-02-04T03:03:34.401Z,98232.02
2023-02-04T03:06:25.671Z,98238.38
2023-02-04T03:08:57.080Z,98239.63
2023-02-04T03:11:29.905Z,98240.95
2023-02-04T03:14:03.525Z,98240.34
2023-02-04T03:16:37.100Z,98239.84
2023-02-04T03:19:07.860Z,98237.46
2023-02-04T03:21:36.835Z,98244.36
2023-02-04T03:24:06.140Z,98240.88
2023-02-04T03:26:35.076Z,98242.81
2023-02-04T03:29:08.143Z,98243.21
2023-02-04T03:31:38.473Z,98243.23
2023-02-04T03:34:07.504Z,98249.34
2023-02-04T03:36:36.736Z,98254.30
2023-02-04T03:39:07.334Z,98261.51
2023-02-04T03:41:35.715Z,98263.08
2023-02-04T03:44:04.249Z,98269.45
2023-02-04T03:46:32.607Z,98274.05
2023-02-04T03:49:00.991Z,98280.26
2023-02-04T03:51:29.378Z,98282.66
2023-02-04T03:53:57.684Z,98288.00
2023-02-04T03:56:26.054Z,98291.90
2023-02-04T03:58:54.436Z,98297.96
2023-02-04T04:01:22.924Z,98310.33
2023-02-04T04:03:51.373Z,98318.00
2023-02-04T04:06:20.453Z,98330.76
2023-02-04T04:08:51.900Z,98334.26
2023-02-04T04:11:22.182Z,98341.70
2023-02-04T04:13:50.585Z,98352.04
2023-02-04T04:16:22.189Z,98358.61
2023-02-04T04:18:51.796Z,98371.62
2023-02-04T04:21:20.101Z,98376.65
2023-02-04T04:23:48.492Z,98379.75
2023-02-04T04:26:17.722Z,98384.97
2023-02-04T04:28:46.090Z,98389.48
2023-02-04T04:31:17.587Z,98396.31
2023-02-04T04:33:45.980Z,98408.11
2023-02-04T04:36:15.115Z,98426.50
2023-02-04T04:38:43.442Z,98443.00
2023-02-04T04:41:11.796Z,98463.92
2023-02-04T04:43:40.022Z,98472.80
2023-02-04T04:46:08.318Z,98488.45
2023-02-04T04:48:36.711Z,98498.92
2023-02-04T04:51:05.121Z,98509.57
2023-02-04T04:53:33.466Z,98527.13
2023-02-04T04:56:01.838Z,98538.98
2023-02-04T04:58:30.223Z,98550.16
2023-02-04T05:00:58.562Z,98566.02
2023-02-04T05:03:27.393Z,98573.96
2023-02-04T05:05:55.725Z,98585.05
2023-02-04T05:08:24.112Z,98602.91
2023-02-04T05:10:52.462Z,98618.27
2023-02-04T05:13:20.740Z,98635.02
2023-02-04T05:15:49.073Z,98651.50
2023-02-04T05:18:17.446Z,98668.48
2023-02-04T05:20:45.952Z,98688.27
2023-02-04T05:23:14.470Z,98705.09
2023-02-04T05:25:43.068Z,98725.42
2023-02-04T05:28:11.476Z,98744.67
2023-02-04T05:30:39.813Z,98762.02
2023-02-04T05:33:08.272Z,98781.42
2023-02-04T05:35:36.607Z,98792.86
2023-02-04T05:38:04.943Z,98807.07
2023-02-04T05:40:33.636Z,98816.02
2023-02-04T05:43:05.252Z,98837.77
2023-02-04T05:45:33.842Z,98852.38
2023-02-04T05:48:02.339Z,98873.14
2023-02-04T05:50:31.290Z,98884.63
2023-02-04T05:53:10.381Z,98896.58
2023-02-04T05:55:39.420Z,98913.71
2023-02-04T05:58:09.894Z,98926.45
2023-02-04T06:00:38.870Z,98940.38
2023-02-04T06:03:07.217Z,98958.30
2023-02-04T06:05:35.602Z,98972.19
2023-02-04T06:08:04.174Z,98986.93
2023-02-04T06:10:33.116Z,99001.66
2023-02-04T06:13:01.782Z,99015.19
2023-02-04T06:15:30.403Z,99028.55
2023-02-04T06:17:58.929Z,99038.89
2023-02-04T06:20:27.464Z,99054.27
2023-02-04T06:22:55.791Z,99069.30
2023-02-04T06:25:24.292Z,99083.27
2023-02-04T06:27:52.739Z,99099.17
2023-02-04T06:30:21.304Z,99116.11
2023-02-04T06:32:49.641Z,99133.36
2023-02-04T06:35:18.303Z,99140.71
2023-02-04T06:37:46.774Z,99155.88
2023-02-04T06:40:15.137Z,99175.90
2023-02-04T06:42:43.466Z,99186.38
2023-02-04T06:45:11.940Z,99201.92
2023-02-04T06:47:40.320Z,99206.16
2023-02-04T06:50:12.387Z,99221.02
2023-02-04T06:52:40.855Z,99237.11
2023-02-04T06:55:09.499Z,99253.16
2023-02-04T06:57:37.802Z,99266.25
2023-02-04T07:00:08.999Z,99285.79
2023-02-04T07:02:39.500Z,99301.15
2023-02-04T07:05:08.877Z,99316.55
2023-02-04T07:07:37.229Z,99324.08
2023-02-04T07:10:06.058Z,99339.39
2023-02-04T07:12:34.430Z,99354.14
2023-02-04T07:15:02.792Z,99369.36
2023-02-04T07:17:31.234Z,99382.87
2023-02-04T07:19:59.662Z,99393.83
2023-02-04T07:22:28.005Z,99411.78
2023-02-04T07:24:57.542Z,99424.20
2023-02-04T07:27:25.974Z,99439.60
2023-02-04T07:29:57.163Z,99457.28
2023-02-04T07:32:28.172Z,99472.04
2023-02-04T07:34:56.654Z,99485.14
2023-02-04T07:37:25.166Z,99502.34
2023-02-04T07:39:53.614Z,99512.75
2023-02-04T07:42:22.137Z,99524.72
2023-02-04T07:44:55.009Z,99535.78
2023-02-04T07:47:23.452Z,99545.95
2023-02-04T07:49:51.908Z,99560.73
2023-02-04T07:52:20.387Z,99570.95
2023-02-04T07:54:49.431Z,99579.09
2023-02-04T07:57:20.414Z,99586.75
2023-02-04T07:59:49.182Z,99597.27
2023-02-04T08:02:17.599Z,99605.15
2023-02-04T08:04:46.021Z,99615.35
2023-02-04T08:07:14.555Z,99626.13
2023-02-04T08:09:43.095Z,99634.55
2023-02-04T08:12:11.468Z,99648.43
2023-02-04T08:14:39.932Z,99657.89
2023-02-04T08:17:08.363Z,99665.79
2023-02-04T08:19:36.737Z,99674.41
2023-02-04T08:22:05.300Z,99680.42
2023-02-04T08:24:33.661Z,99689.30
2023-02-04T08:27:02.063Z,99701.81
2023-02-04T08:29:30.614Z,99702.37
2023-02-04T08:31:59.559Z,99708.19
2023-02-04T08:34:27.936Z,99713.86
2023-02-04T08:36:56.740Z,99720.42
2023-02-04T08:39:25.164Z,99722.67
2023-02-04T08:41:53.774Z,99725.10
2023-02-04T08:44:23.028Z,99727.20
2023-02-04T08:46:51.771Z,99737.98
2023-02-04T08:49:20.272Z,99743.09
2023-02-04T08:51:48.754Z,99747.50
2023-02-04T08:54:17.187Z,99757.48
2023-02-04T08:56:45.787Z,99764.21
2023-02-04T08:59:14.473Z,99769.66
2023-02-04T09:01:43.232Z,99778.50
2023-02-04T09:04:11.642Z,99782.56
2023-02-04T09:06:40.293Z,99785.77
2023-02-04T09:09:08.769Z,99791.05
2023-02-04T09:11:37.585Z,99797.02
2023-02-04T09:14:07.395Z,99804.55
2023-02-04T09:16:35.840Z,99812.09
2023-02-04T09:19:04.941Z,99819.84
2023-02-04T09:21:33.480Z,99826.45
2023-02-04T09:24:01.844Z,99834.86
2023-02-04T09:26:30.778Z,99845.98
2023-02-04T09:28:59.260Z,99854.09
2023-02-04T09:31:27.802Z,99861.61
2023-02-04T09:33:56.371Z,99866.52
2023-02-04T09:36:28.679Z,99873.65
2023-02-04T09:38:57.084Z,99879.31
2023-02-04T09:41:25.689Z,99881.76
2023-02-04T09:43:54.048Z,99887.32
2023-02-04T09:46:28.616Z,99895.75
2023-02-04T09:49:04.447Z,99899.65
2023-02-04T09:51:35.386Z,99904.84
2023-02-04T09:54:23.179Z,99905.66
2023-02-04T09:56:53.339Z,99906.27
2023-02-04T09:59:24.133Z,99909.79
2023-02-04T10:02:00.694Z,99915.36
2023-02-04T10:04:38.984Z,99918.38
2023-02-04T10:07:12.823Z,99926.19
2023-02-04T10:09:50.482Z,99933.02
2023-02-04T10:12:19.968Z,99935.45
2023-02-04T10:14:49.447Z,99935.56
2023-02-04T10:17:22.193Z,99937.74
2023-02-04T10:19:50.776Z,99936.19
2023-02-04T10:22:22.823Z,99939.48
2023-02-04T10:24:51.336Z,99942.05
2023-02-04T10:27:19.917Z,99948.08
2023-02-04T10:29:59.554Z,99949.80
2023-02-04T10:32:34.023Z,99952.42
2023-02-04T10:35:04.228Z,99954.59
2023-02-04T10:37:32.733Z,99958.37
2023-02-04T10:40:01.169Z,99963.10
2023-02-04T10:42:31.374Z,99965.17
2023-02-04T10:44:59.985Z,99966.98
2023-02-04T10:47:31.775Z,99969.69
2023-02-04T10:50:08.815Z,99970.89
2023-02-04T10:52:43.767Z,99965.96
2023-02-04T10:55:14.558Z,99978.83
2023-02-04T10:57:46.500Z,99986.66
2023-02-04T11:00:17.479Z,99992.23
2023-02-04T11:02:49.961Z,99989.33
2023-02-04T11:05:21.751Z,99997.52
2023-02-04T11:07:51.611Z,99997.45
2023-02-04T11:10:23.655Z,100000.72
2023-02-04T11:12:55.229Z,100003.95
2023-02-04T11:15:50.170Z,100000.00
2023-02-04T11:18:22.393Z,100006.12
2023-02-04T11:20:54.181Z,100006.77
2023-02-04T11:23:36.498Z,100008.55
2023-02-04T11:26:08.000Z,100014.23
2023-02-04T11:28:45.582Z,100018.65
2023-02-04T11:31:22.196Z,100023.23
2023-02-04T11:34:09.582Z,100021.97
2023-02-04T11:36:59.799Z,100022.78
2023-02-04T11:39:37.310Z,100024.85
2023-02-04T11:42:15.473Z,100028.95
2023-02-04T11:44:50.376Z,100031.29
2023-02-04T11:47:19.411Z,100038.48
2023-02-04T11:49:55.124Z,100040.51
2023-02-04T11:52:23.775Z,100044.92
2023-02-04T11:55:00.506Z,100046.30
2023-02-04T11:57:29.719Z,100051.28
2023-02-04T12:00:00.252Z,100050.59
2023-02-04T12:02:28.809Z,100058.31
2023-02-04T12:05:13.157Z,100055.15
2023-02-04T12:07:44.824Z,100058.37
2023-02-04T12:10:25.430Z,100064.05
2023-02-04T12:12:59.893Z,100071.42
2023-02-04T12:15:37.549Z,100071.25
2023-02-04T12:18:09.994Z,100073.76
2023-02-04T12:20:39.183Z,100071.67
2023-02-04T12:23:08.878Z,100077.73
2023-02-04T12:25:37.209Z,100085.34
2023-02-04T12:28:05.975Z,100088.77
2023-02-04T12:30:36.406Z,100094.23
2023-02-04T12:33:08.848Z,100096.64
2023-02-04T12:35:38.544Z,100100.24
2023-02-04T12:38:20.518Z,100106.05
2023-02-04T12:40:59.555Z,100115.61
2023-02-04T12:43:31.271Z,100119.73
2023-02-04T12:45:59.954Z,100124.30
2023-02-04T12:48:35.044Z,100124.61
2023-02-04T12:51:10.343Z,100135.50
2023-02-04T12:53:39.108Z,100139.90
2023-02-04T12:56:21.113Z,100144.52
2023-02-04T12:58:53.182Z,100142.52
2023-02-04T13:01:29.187Z,100138.05
2023-02-04T13:03:58.649Z,100146.90
2023-02-04T13:06:28.338Z,100151.75
2023-02-04T13:09:04.070Z,100155.44
2023-02-04T13:11:49.394Z,100155.35
2023-02-04T13:14:28.829Z,100157.25
2023-02-04T13:17:04.130Z,100158.90
2023-02-04T13:19:57.893Z,100155.52
2023-02-04T13:22:59.951Z,100157.45
2023-02-04T13:25:39.708Z,100162.58
2023-02-04T13:28:23.501Z,100170.48
2023-02-04T13:30:55.944Z,100177.00
2023-02-04T13:33:25.460Z,100180.34
2023-02-04T13:35:55.860Z,100189.59
2023-02-04T13:38:32.097Z,100189.27
2023-02-04T13:41:27.427Z,100191.12
2023-02-04T13:44:13.491Z,100201.21
2023-02-04T13:46:42.152Z,100202.23
2023-02-04T13:49:14.416Z,100208.56
2023-02-04T13:51:45.585Z,100208.14
2023-02-04T13:54:14.601Z,100211.92
2023-02-04T13:56:43.260Z,100220.14
2023-02-04T13:59:23.529Z,100224.66
2023-02-04T14:01:52.453Z,100230.23
2023-02-04T14:04:45.268Z,100233.53
2023-02-04T14:07:33.984Z,100236.84
2023-02-04T14:10:06.353Z,100244.46
2023-02-04T14:12:35.151Z,100248.23
2023-02-04T14:15:07.403Z,100245.71
2023-02-04T14:17:47.940Z,100245.10
2023-02-04T14:20:23.116Z,100251.44
2023-02-04T14:23:07.490Z,100248.77
2023-02-04T14:25:49.972Z,100247.98
2023-02-04T14:28:47.431Z,100258.38
2023-02-04T14:31:22.526Z,100260.17
2023-02-04T14:33:53.107Z,100258.80
2023-02-04T14:36:39.640Z,100263.73
2023-02-04T14:39:56.431Z,100262.00
2023-02-04T14:42:18.267Z,100265.84
2023-02-04T14:44:56.099Z,100265.69
2023-02-04T14:47:26.726Z,100267.65
2023-02-04T14:52:46.160Z,100275.05
2023-02-04T14:55:15.500Z,100276.13
2023-02-04T14:57:46.392Z,100278.38
2023-02-04T15:00:26.072Z,100289.73
2023-02-04T15:02:59.530Z,100289.92
2023-02-04T15:05:28.662Z,100292.42
2023-02-04T15:07:56.974Z,100296.10
2023-02-04T15:10:37.084Z,100293.88
2023-02-04T15:13:05.966Z,100298.77
2023-02-04T15:15:34.758Z,100300.20
2023-02-04T15:18:03.274Z,100303.70
2023-02-04T15:20:34.696Z,100309.66
2023-02-04T15:23:03.748Z,100312.64
2023-02-04T15:25:35.410Z,100315.10
2023-02-04T15:28:04.200Z,100312.52
2023-02-04T15:30:33.402Z,100317.39
2023-02-04T15:33:02.252Z,100317.41
2023-02-04T15:35:30.687Z,100323.70
2023-02-04T15:37:59.388Z,100327.54
2023-02-04T15:40:30.391Z,100329.98
2023-02-04T15:42:59.174Z,100330.67
2023-02-04T15:45:30.754Z,100331.72
2023-02-04T15:47:59.169Z,100336.09
2023-02-04T15:50:28.997Z,100340.80
2023-02-04T15:52:58.536Z,100342.72
2023-02-04T15:55:27.093Z,100345.88
2023-02-04T15:57:55.720Z,100345.91
2023-02-04T16:00:24.251Z,100346.10
2023-02-04T16:02:52.709Z,100354.10
2023-02-04T16:05:21.114Z,100358.30
2023-02-04T16:07:49.500Z,100359.50
2023-02-04T16:10:18.615Z,100360.05
2023-02-04T16:12:51.520Z,100362.85
2023-02-04T16:15:19.940Z,100365.81
2023-02-04T16:17:48.416Z,100369.83
2023-02-04T16:20:18.572Z,100374.55
2023-02-04T16:22:46.961Z,100372.13
2023-02-04T16:25:15.720Z,100365.36
2023-02-04T16:27:45.159Z,100366.25
2023-02-04T16:30:14.064Z,100367.16
2023-02-04T16:32:42.905Z,100377.80
2023-02-04T16:35:11.374Z,100383.21
2023-02-04T16:37:41.444Z,100384.45
2023-02-04T16:40:13.489Z,100389.31
2023-02-04T16:42:42.226Z,100391.23
2023-02-04T16:45:10.636Z,100395.58
2023-02-04T16:47:39.241Z,100394.89
2023-02-04T16:50:08.024Z,100401.35
2023-02-04T16:52:36.451Z,100400.48
2023-02-04T16:55:08.834Z,100400.83
2023-02-04T16:57:37.386Z,100408.69
2023-02-04T17:00:06.484Z,100409.38
2023-02-04T17:02:37.399Z,100413.56
2023-02-04T17:05:06.390Z,100418.63
2023-02-04T17:07:35.872Z,100421.25
2023-02-04T17:10:05.461Z,100424.39
2023-02-04T17:12:34.062Z,100427.70
2023-02-04T17:15:02.490Z,100428.73
2023-02-04T17:17:30.895Z,100421.96
2023-02-04T17:20:10.061Z,100423.36
2023-02-04T17:22:38.517Z,100417.63
2023-02-04T17:25:07.257Z,100416.75
2023-02-04T17:27:35.820Z,100413.98
2023-02-04T17:30:04.640Z,100421.13
2023-02-04T17:32:33.108Z,100418.71
2023-02-04T17:35:02.077Z,100418.90
2023-02-04T17:37:30.440Z,100422.92
2023-02-04T17:39:59.112Z,100428.15
2023-02-04T17:42:28.302Z,100425.90
2023-02-04T17:44:56.726Z,100431.48
2023-02-04T17:47:25.132Z,100433.23
2023-02-04T17:49:56.111Z,100434.81
2023-02-04T17:52:26.789Z,100442.83
2023-02-04T17:54:55.210Z,100445.63
2023-02-04T17:57:23.583Z,100445.27
2023-02-04T17:59:54.787Z,100452.42
2023-02-04T18:02:29.984Z,100453.30
2023-02-04T18:05:04.108Z,100452.45
2023-02-04T18:07:32.832Z,100456.46
2023-02-04T18:10:21.762Z,100449.49
2023-02-04T18:12:50.179Z,100450.38
2023-02-04T18:15:31.221Z,100451.61
2023-02-04T18:18:22.062Z,100450.38
2023-02-04T18:21:25.617Z,100451.23
2023-02-04T18:24:09.118Z,100454.91
2023-02-04T18:26:56.479Z,100458.77
2023-02-04T18:29:27.152Z,100456.85
2023-02-04T18:32:15.773Z,100455.45
2023-02-04T18:34:50.456Z,100455.10
2023-02-04T18:37:31.829Z,100450.93
2023-02-04T18:40:14.464Z,100450.23
2023-02-04T18:42:45.699Z,100453.23
2023-02-04T18:45:20.434Z,100453.59
2023-02-04T18:47:57.959Z,100453.77
2023-02-04T18:50:32.240Z,100452.89
2023-02-04T18:53:13.704Z,100448.20
2023-02-04T18:55:51.649Z,100451.52
2023-02-04T18:58:49.426Z,100449.60
2023-02-04T19:01:27.913Z,100453.27
2023-02-04T19:04:03.699Z,100459.52
2023-02-04T19:06:37.825Z,100467.88
2023-02-04T19:09:12.425Z,100472.39
2023-02-04T19:12:08.570Z,100467.51
2023-02-04T19:14:39.403Z,100477.61
2023-02-04T19:17:08.242Z,100481.80
2023-02-04T19:19:44.065Z,100481.44
2023-02-04T19:22:20.073Z,100486.66
2023-02-04T19:25:18.455Z,100489.98
2023-02-04T19:27:55.313Z,100486.86
2023-02-04T19:30:28.406Z,100488.27
2023-02-04T19:33:06.099Z,100490.90
2023-02-04T19:35:48.234Z,100488.64
2023-02-04T19:38:40.146Z,100492.30
2023-02-04T19:41:26.893Z,100496.34
2023-02-04T19:44:10.524Z,100497.93
2023-02-04T19:46:42.794Z,100500.73
2023-02-04T19:49:30.073Z,100504.94
2023-02-04T19:51:59.311Z,100506.02
2023-02-04T19:54:38.698Z,100514.02
2023-02-04T19:57:29.384Z,100521.53
2023-02-04T20:00:00.791Z,100528.14
2023-02-04T20:02:37.564Z,100531.09
2023-02-04T20:05:31.956Z,100535.97
2023-02-04T20:08:33.072Z,100539.80
2023-02-04T20:11:30.140Z,100545.02
2023-02-04T20:14:10.728Z,100549.20
2023-02-04T20:16:53.681Z,100550.42
2023-02-04T20:19:35.776Z,100554.59
2023-02-04T20:22:18.883Z,100561.55
2023-02-04T20:24:57.183Z,100566.95
2023-02-04T20:27:35.455Z,100570.94
2023-02-04T20:30:11.956Z,100574.77
2023-02-04T20:32:42.531Z,100573.38
2023-02-04T20:35:17.119Z,100579.96
2023-02-04T20:37:59.809Z,100582.23
2023-02-04T20:40:37.603Z,100583.45
2023-02-04T20:43:17.040Z,100581.19
2023-02-04T20:45:51.199Z,100579.80
2023-02-04T20:48:27.493Z,100579.29
2023-02-04T20:50:58.560Z,100576.33
2023-02-04T20:53:45.532Z,100578.58
2023-02-04T20:56:24.237Z,100579.98
2023-02-04T20:59:23.919Z,100584.30
2023-02-04T21:01:54.194Z,100581.88
2023-02-04T21:04:38.783Z,100583.09
2023-02-04T21:07:18.736Z,100590.21
2023-02-04T21:09:48.495Z,100592.30
2023-02-04T21:12:16.862Z,100595.07
2023-02-04T21:14:48.505Z,100596.11
2023-02-04T21:17:17.097Z,100598.70
2023-02-04T21:19:45.462Z,100600.80
2023-02-04T21:22:13.901Z,100599.92
2023-02-04T21:24:44.887Z,100605.30
2023-02-04T21:27:14.142Z,100607.21
2023-02-04T21:29:42.708Z,100608.91
2023-02-04T21:32:15.281Z,100610.31
2023-02-04T21:34:43.603Z,100611.35
2023-02-04T21:37:12.134Z,100616.91
2023-02-04T21:39:41.180Z,100617.27
2023-02-04T21:42:13.431Z,100617.42
2023-02-04T21:44:42.179Z,100616.91
2023-02-04T21:47:10.680Z,100619.84
2023-02-04T21:49:42.697Z,100620.54
2023-02-04T21:52:11.653Z,100620.52
2023-02-04T21:54:42.680Z,100618.27
2023-02-04T21:57:10.951Z,100618.77
2023-02-04T21:59:39.270Z,100618.58
2023-02-04T22:02:07.722Z,100622.06
2023-02-04T22:04:36.075Z,100621.19
2023-02-04T22:07:04.493Z,100623.27
2023-02-04T22:09:32.823Z,100621.88
2023-02-04T22:12:04.540Z,100625.71
2023-02-04T22:14:32.977Z,100630.05
2023-02-04T22:17:01.326Z,100631.99
2023-02-04T22:19:29.755Z,100635.13
2023-02-04T22:21:58.538Z,100641.23
2023-02-04T22:24:27.362Z,100644.71
2023-02-04T22:26:55.883Z,100648.37
2023-02-04T22:29:28.928Z,100649.23
2023-02-04T22:31:57.284Z,100648.73
2023-02-04T22:34:26.724Z,100652.39
2023-02-04T22:36:55.797Z,100654.66
2023-02-04T22:39:25.106Z,100656.58
2023-02-04T22:41:53.572Z,100655.70
2023-02-04T22:44:24.506Z,100657.98
2023-02-04T22:46:53.903Z,100661.45
2023-02-04T22:49:22.274Z,100664.94
2023-02-04T22:51:50.536Z,100668.41
2023-02-04T22:54:18.904Z,100671.73
2023-02-04T22:56:47.331Z,100674.16
2023-02-04T22:59:15.590Z,100675.55
2023-02-04T23:01:43.849Z,100681.29
2023-02-04T23:04:12.273Z,100677.64
2023-02-04T23:06:41.048Z,100679.20
2023-02-04T23:09:09.402Z,100679.89
2023-02-04T23:11:37.776Z,100683.02
2023-02-04T23:14:06.137Z,100688.23
2023-02-04T23:16:35.030Z,100694.50
2023-02-04T23:19:03.615Z,100699.36
2023-02-04T23:21:33.055Z,100697.45
2023-02-04T23:24:01.541Z,100700.58
2023-02-04T23:26:29.988Z,100705.45
2023-02-04T23:29:01.029Z,100708.05
2023-02-04T23:31:29.342Z,100709.45
2023-02-04T23:33:57.704Z,100714.33
2023-02-04T23:36:26.106Z,100711.55
2023-02-04T23:38:54.391Z,100711.38
2023-02-04T23:41:23.532Z,100711.71
2023-02-04T23:43:51.830Z,100713.48
2023-02-04T23:46:20.273Z,100721.46
2023-02-04T23:48:48.587Z,100723.73
2023-02-04T23:51:16.969Z,100724.25
2023-02-04T23:53:45.330Z,100718.50
2023-02-04T23:56:13.748Z,100720.61
2023-02-04T23:58:41.993Z,100720.26
